Time;durP1;ratioP1;P1;durP2;ratioP2;P2;SDS_P1;SDS_P2;PMS_P1;PMS_P2;Temp;Humidity;BMP_temperature;BMP_pressure;BME280_temperature;BME280_humidity;BME280_pressure;Samples;Min_cycle;Max_cycle;Signal;HPM_P1;HPM_P2
2022/10/13 00:01:20;;;;;;;17.70;11.10;;;;;;;7.41;77.85;98712.38;106667;1309;22093;-91
2022/10/13 00:03:49;;;;;;;15.40;10.70;;;;;;;7.42;77.80;98715.80;106613;1309;22181;-93
2022/10/13 00:06:23;;;;;;;17.50;11.40;;;;;;;7.40;77.97;98716.44;106922;1287;22077;-92
2022/10/13 00:08:52;;;;;;;20.00;12.40;;;;;;;7.37;77.93;98712.61;106718;1309;22256;-91
2022/10/13 00:11:26;;;;;;;16.00;12.80;;;;;;;7.33;77.85;98709.42;106567;1309;22799;-90
2022/10/13 00:13:56;;;;;;;18.00;11.80;;;;;;;7.28;77.89;98708.09;106853;1303;22144;-92
2022/10/13 00:16:24;;;;;;;36.90;12.90;;;;;;;7.27;77.87;98707.66;106639;1309;22155;-92
2022/10/13 00:18:52;;;;;;;16.80;11.80;;;;;;;7.28;77.93;98708.09;106736;1305;22171;-92
2022/10/13 00:21:23;;;;;;;18.10;11.90;;;;;;;7.30;77.88;98710.85;106653;1309;22206;-90
2022/10/13 00:23:53;;;;;;;19.40;11.40;;;;;;;7.28;77.80;98703.96;106629;1309;22238;-91
2022/10/13 00:26:22;;;;;;;15.90;11.00;;;;;;;7.25;77.88;98704.54;106924;1302;22086;-91
2022/10/13 00:28:50;;;;;;;20.40;12.50;;;;;;;7.23;78.04;98703.39;106933;1302;22155;-91
2022/10/13 00:31:25;;;;;;;17.20;12.10;;;;;;;7.19;77.96;98702.77;106660;1309;23008;-89
2022/10/13 00:33:54;;;;;;;21.00;12.50;;;;;;;7.16;77.82;98705.42;106824;1291;22215;-89
2022/10/13 00:36:23;;;;;;;21.70;12.10;;;;;;;7.12;77.82;98701.38;106643;1309;23368;-88
2022/10/13 00:38:52;;;;;;;19.60;12.10;;;;;;;7.12;77.93;98700.41;106759;1302;22159;-92
2022/10/13 00:41:20;;;;;;;16.20;11.10;;;;;;;7.13;78.05;98697.47;106902;1280;22834;-92
2022/10/13 00:43:57;;;;;;;16.90;11.70;;;;;;;7.13;77.95;98697.16;107002;1287;22196;-90
2022/10/13 00:46:31;;;;;;;15.90;11.10;;;;;;;7.11;77.92;98695.59;106991;1283;22245;-92
2022/10/13 00:49:05;;;;;;;17.40;12.50;;;;;;;7.07;78.04;98694.70;106749;1304;22198;-92
2022/10/13 00:51:39;;;;;;;17.90;11.90;;;;;;;7.03;78.16;98696.59;106991;1302;22142;-90
2022/10/13 00:54:10;;;;;;;18.00;11.60;;;;;;;7.04;78.03;98692.73;106762;1306;22082;-93
2022/10/13 00:56:38;;;;;;;14.90;10.90;;;;;;;7.06;78.76;98688.80;106623;1307;22183;-90
2022/10/13 00:59:21;;;;;;;17.10;11.90;;;;;;;7.08;78.71;98688.70;106449;1309;22051;-92
2022/10/13 01:01:51;;;;;;;15.10;11.50;;;;;;;7.11;78.72;98684.53;106671;1309;22136;-91
2022/10/13 01:04:24;;;;;;;15.60;12.00;;;;;;;7.11;79.00;98682.40;106556;1310;22409;-86
2022/10/13 01:06:54;;;;;;;18.80;11.40;;;;;;;7.10;78.96;98685.98;106640;1309;22194;-86
2022/10/13 01:09:22;;;;;;;15.60;11.00;;;;;;;7.08;79.19;98686.39;106895;1302;22220;-90
2022/10/13 01:12:18;;;;;;;15.80;11.40;;;;;;;7.09;79.11;98682.44;106633;1309;22173;-89
2022/10/13 01:15:06;;;;;;;19.10;12.20;;;;;;;7.13;78.71;98681.88;106625;1309;22917;-88
2022/10/13 01:18:03;;;;;;;19.10;11.70;;;;;;;7.13;78.90;98680.54;106520;1309;22219;-90
2022/10/13 01:20:34;;;;;;;23.60;14.40;;;;;;;7.09;78.92;98677.67;106527;1308;22172;-90
2022/10/13 01:23:31;;;;;;;18.30;14.00;;;;;;;7.03;78.87;98680.95;106273;1305;22202;-91
2022/10/13 01:26:05;;;;;;;19.60;14.00;;;;;;;6.94;78.65;98676.80;106004;1315;22205;-90
2022/10/13 01:28:52;;;;;;;19.70;13.70;;;;;;;6.82;78.49;98670.42;106221;1315;22227;-91
2022/10/13 01:31:40;;;;;;;25.90;14.40;;;;;;;6.75;78.71;98672.20;106531;1308;22183;-89
2022/10/13 01:34:22;;;;;;;25.90;15.90;;;;;;;6.63;78.78;98669.13;106084;1309;22202;-89
2022/10/13 01:36:56;;;;;;;21.20;16.80;;;;;;;6.47;78.75;98672.67;106523;1308;22225;-91
2022/10/13 01:39:42;;;;;;;23.80;16.40;;;;;;;6.31;78.69;98667.96;106302;1315;22137;-90
2022/10/13 01:42:26;;;;;;;24.70;16.50;;;;;;;6.17;78.84;98664.50;106221;1315;22213;-90
2022/10/13 01:45:00;;;;;;;23.00;16.90;;;;;;;6.08;78.87;98666.12;106201;1315;22239;-90
2022/10/13 01:47:30;;;;;;;;;;;;;;;6.01;78.96;98664.96;106017;1315;22439;-91
2022/10/13 01:49:59;;;;;;;24.00;16.70;;;;;;;5.90;78.89;98659.89;106469;1300;22293;-91
2022/10/13 01:52:33;;;;;;;22.80;17.60;;;;;;;5.80;78.94;98658.20;106313;1315;23061;-92
2022/10/13 01:55:10;;;;;;;26.10;18.20;;;;;;;5.69;79.13;98656.74;106230;1315;22232;-91
2022/10/13 01:57:41;;;;;;;27.10;17.10;;;;;;;5.58;79.10;98654.61;106435;1309;22174;-91
2022/10/13 02:00:13;;;;;;;25.20;18.90;;;;;;;5.51;79.37;98655.33;106511;1310;22201;-93
2022/10/13 02:03:12;;;;;;;22.70;19.00;;;;;;;5.43;79.51;98655.54;106622;1309;22926;-91
2022/10/13 02:05:50;;;;;;;28.30;18.80;;;;;;;5.32;79.89;98650.84;106835;1309;22190;-94
2022/10/13 02:08:30;;;;;;;25.20;20.70;;;;;;;5.21;79.95;98649.46;106685;1309;22219;-89
2022/10/13 02:11:09;;;;;;;24.90;18.30;;;;;;;5.12;80.09;98646.98;106705;1309;22072;-88
2022/10/13 02:13:58;;;;;;;22.20;18.00;;;;;;;5.09;80.61;98643.02;106763;1300;22800;-88
2022/10/13 02:16:32;;;;;;;20.30;16.70;;;;;;;5.09;80.31;98639.01;106945;1288;22080;-91
2022/10/13 02:19:05;;;;;;;27.40;18.30;;;;;;;5.10;80.41;98636.41;106716;1309;22210;-90
2022/10/13 02:21:34;;;;;;;22.70;17.30;;;;;;;5.10;80.71;98638.77;106676;1293;22103;-87
2022/10/13 02:24:05;;;;;;;24.10;18.90;;;;;;;5.09;80.75;98639.83;106721;1309;22210;-91
2022/10/13 02:26:35;;;;;;;25.90;20.10;;;;;;;5.07;80.89;98636.80;106739;1287;22214;-91
2022/10/13 02:29:11;;;;;;;23.40;17.30;;;;;;;5.07;81.36;98630.55;106648;1304;22672;-87
2022/10/13 02:31:40;;;;;;;22.40;16.70;;;;;;;5.10;81.17;98626.58;106621;1310;22177;-86
2022/10/13 02:34:08;;;;;;;21.80;16.40;;;;;;;5.11;81.41;98622.44;107026;1300;22180;-85
2022/10/13 02:36:39;;;;;;;25.20;20.10;;;;;;;5.11;81.51;98621.91;107004;1309;22218;-87
2022/10/13 02:39:09;;;;;;;25.70;19.60;;;;;;;5.09;81.52;98620.91;106902;1306;22256;-85
2022/10/13 02:41:37;;;;;;;23.10;19.90;;;;;;;5.08;81.72;98621.52;106841;1309;22130;-86
2022/10/13 02:44:06;;;;;;;29.60;22.70;;;;;;;5.07;81.88;98623.19;106968;1307;22544;-87
2022/10/13 02:46:34;;;;;;;36.70;27.40;;;;;;;5.09;82.19;98623.64;107099;1288;22156;-90
2022/10/13 02:49:02;;;;;;;38.80;28.60;;;;;;;5.11;82.03;98623.98;106606;1310;22238;-90
2022/10/13 02:51:30;;;;;;;39.10;29.00;;;;;;;5.12;82.07;98624.42;106883;1302;22170;-88
2022/10/13 02:54:04;;;;;;;34.60;25.80;;;;;;;5.09;82.32;98626.67;106933;1302;22113;-90
2022/10/13 02:56:32;;;;;;;29.30;23.60;;;;;;;5.06;82.50;98626.73;106660;1309;22207;-90
2022/10/13 02:58:59;;;;;;;30.40;22.90;;;;;;;5.04;82.59;98625.12;106649;1309;22897;-89
2022/10/13 03:01:27;;;;;;;27.80;21.70;;;;;;;5.04;82.63;98623.36;106861;1290;22923;-91
2022/10/13 03:03:55;;;;;;;24.30;21.80;;;;;;;5.05;82.60;98623.08;106613;1309;22991;-90
2022/10/13 03:06:23;;;;;;;25.90;21.30;;;;;;;5.04;82.57;98625.21;106636;1301;22167;-90
2022/10/13 03:08:52;;;;;;;32.00;22.80;;;;;;;5.02;82.46;98622.09;106659;1308;22189;-90
2022/10/13 03:11:19;;;;;;;32.70;23.40;;;;;;;4.98;82.41;98626.31;106873;1297;22072;-90
2022/10/13 03:13:47;;;;;;;24.70;19.90;;;;;;;4.96;82.40;98624.89;106655;1309;22680;-91
2022/10/13 03:16:15;;;;;;;25.50;21.80;;;;;;;4.89;82.40;98622.33;106587;1309;22181;-89
2022/10/13 03:18:43;;;;;;;27.80;23.50;;;;;;;4.83;82.48;98621.48;106953;1302;22152;-87
2022/10/13 03:21:11;;;;;;;28.80;25.80;;;;;;;4.79;82.50;98619.39;106952;1295;22149;-91
2022/10/13 03:23:39;;;;;;;33.50;30.20;;;;;;;4.69;82.90;98621.31;106669;1309;22108;-89
2022/10/13 03:26:07;;;;;;;38.20;34.30;;;;;;;4.57;82.73;98621.70;106900;1299;22847;-89
2022/10/13 03:28:34;;;;;;;39.60;35.00;;;;;;;4.47;82.82;98618.61;106847;1287;22206;-90
2022/10/13 03:31:05;;;;;;;36.00;32.30;;;;;;;4.42;82.73;98619.42;106874;1302;22048;-89
2022/10/13 03:33:33;;;;;;;44.00;34.90;;;;;;;4.39;82.96;98621.57;106588;1304;22195;-88
2022/10/13 03:36:03;;;;;;;40.70;36.00;;;;;;;4.33;82.84;98620.83;106840;1297;22177;-85
2022/10/13 03:38:33;;;;;;;39.50;35.70;;;;;;;4.25;83.27;98618.23;106883;1302;22322;-89
2022/10/13 03:41:05;;;;;;;35.00;31.30;;;;;;;4.17;83.27;98619.47;106615;1309;22817;-90
2022/10/13 03:43:34;;;;;;;32.50;29.30;;;;;;;4.13;83.06;98623.13;106584;1309;22303;-88
2022/10/13 03:46:03;;;;;;;29.60;26.50;;;;;;;4.12;83.09;98622.79;106726;1302;22182;-89
2022/10/13 03:48:33;;;;;;;29.70;26.60;;;;;;;4.11;83.11;98626.25;106888;1295;22157;-90
2022/10/13 03:51:14;;;;;;;31.80;27.70;;;;;;;4.09;83.18;98626.10;106659;1309;22215;-90
2022/10/13 03:53:46;;;;;;;33.50;30.40;;;;;;;4.03;82.97;98626.74;106533;1310;22194;-90
2022/10/13 03:56:17;;;;;;;36.00;30.50;;;;;;;3.94;83.27;98624.96;106531;1309;22105;-90
2022/10/13 03:58:56;;;;;;;31.80;28.10;;;;;;;3.87;83.06;98626.38;106643;1309;22193;-89
2022/10/13 04:01:28;;;;;;;28.30;25.40;;;;;;;3.84;83.58;98627.11;106630;1310;22200;-90
2022/10/13 04:03:57;;;;;;;30.60;27.50;;;;;;;3.83;83.17;98626.67;106710;1297;22318;-89
2022/10/13 04:06:25;;;;;;;37.80;27.80;;;;;;;3.80;83.36;98627.09;106631;1309;22202;-88
2022/10/13 04:08:54;;;;;;;34.30;28.70;;;;;;;3.75;83.22;98620.80;106595;1309;22189;-89
2022/10/13 04:11:22;;;;;;;27.80;24.80;;;;;;;3.70;83.69;98621.36;106566;1309;22184;-89
2022/10/13 04:13:55;;;;;;;26.30;23.70;;;;;;;3.68;83.44;98618.59;106635;1308;22198;-89
2022/10/13 04:16:26;;;;;;;27.00;22.30;;;;;;;3.66;83.33;98614.81;106643;1309;22189;-90
2022/10/13 04:19:05;;;;;;;25.90;22.70;;;;;;;3.61;83.37;98617.66;106556;1309;22118;-88
2022/10/13 04:21:34;;;;;;;28.80;25.50;;;;;;;3.58;83.51;98618.66;106647;1309;22208;-89
2022/10/13 04:24:03;;;;;;;29.70;25.40;;;;;;;3.54;83.80;98617.82;106892;1287;22410;-89
2022/10/13 04:26:34;;;;;;;25.60;22.90;;;;;;;3.52;83.87;98617.73;106617;1309;22168;-90
2022/10/13 04:29:06;;;;;;;;;;;;;;;3.53;83.52;98614.60;106529;1309;22234;-90
2022/10/13 04:31:34;;;;;;;27.90;21.70;;;;;;;3.50;83.82;98614.83;106571;1309;22887;-88
2022/10/13 04:34:02;;;;;;;26.70;23.30;;;;;;;3.53;83.92;98610.02;106661;1309;22069;-89
2022/10/13 04:36:30;;;;;;;27.30;24.50;;;;;;;3.55;84.22;98604.67;106639;1309;22886;-89
2022/10/13 04:38:58;;;;;;;29.00;25.40;;;;;;;3.57;84.12;98601.00;106525;1309;22171;-88
2022/10/13 04:41:26;;;;;;;27.30;23.90;;;;;;;3.56;84.06;98601.72;107423;1280;22259;-85
2022/10/13 04:43:54;;;;;;;35.10;23.00;;;;;;;3.56;84.39;98604.54;107092;1304;22219;-83
2022/10/13 04:46:25;;;;;;;24.60;21.60;;;;;;;3.59;84.42;98603.39;107015;1297;22188;-86
2022/10/13 04:48:54;;;;;;;26.30;23.00;;;;;;;3.61;84.41;98609.77;106953;1309;22069;-83
2022/10/13 04:51:25;;;;;;;31.00;25.90;;;;;;;3.67;84.61;98607.11;106970;1303;22091;-90
2022/10/13 04:53:55;;;;;;;30.40;27.20;;;;;;;3.69;84.46;98605.11;106561;1310;22223;-89
2022/10/13 04:56:23;;;;;;;28.80;25.80;;;;;;;3.68;84.42;98604.02;106605;1309;22131;-85
2022/10/13 04:58:52;;;;;;;27.70;24.30;;;;;;;3.69;84.56;98601.98;106741;1304;22081;-86
2022/10/13 05:01:23;;;;;;;30.90;23.50;;;;;;;3.73;84.46;98600.67;107083;1287;22548;-87
2022/10/13 05:03:59;;;;;;;27.30;23.40;;;;;;;3.77;84.81;98604.17;107160;1286;22087;-85
2022/10/13 05:06:30;;;;;;;29.50;24.30;;;;;;;3.77;84.76;98598.52;107187;1300;22783;-88
2022/10/13 05:08:59;;;;;;;30.80;23.90;;;;;;;3.81;84.44;98609.52;107144;1287;22173;-85
2022/10/13 05:11:28;;;;;;;28.60;23.60;;;;;;;3.82;84.89;98609.91;106814;1309;22184;-88
2022/10/13 05:13:57;;;;;;;34.60;22.50;;;;;;;3.84;84.95;98608.84;106830;1310;22131;-86
2022/10/13 05:16:25;;;;;;;39.10;22.10;;;;;;;3.89;85.10;98609.89;106863;1309;22914;-88
2022/10/13 05:18:54;;;;;;;30.00;21.90;;;;;;;3.94;85.11;98615.91;106837;1303;22164;-90
2022/10/13 05:21:24;;;;;;;31.70;23.30;;;;;;;4.00;84.94;98606.98;106859;1309;22190;-90
2022/10/13 05:23:54;;;;;;;38.90;23.50;;;;;;;4.06;84.85;98613.84;107073;1283;22125;-89
2022/10/13 05:26:30;;;;;;;29.50;24.70;;;;;;;4.09;85.20;98616.73;106908;1302;22179;-91
2022/10/13 05:29:00;;;;;;;31.60;27.80;;;;;;;4.10;85.01;98618.86;106677;1309;22196;-93
2022/10/13 05:31:33;;;;;;;32.00;25.20;;;;;;;4.12;85.26;98624.30;106747;1299;22166;-89
2022/10/13 05:34:02;;;;;;;28.50;23.80;;;;;;;4.15;85.15;98624.81;106608;1306;22183;-86
2022/10/13 05:36:34;;;;;;;37.20;28.10;;;;;;;4.18;85.34;98624.66;106905;1297;22637;-89
2022/10/13 05:39:05;;;;;;;75.40;32.70;;;;;;;4.20;85.16;98622.92;106622;1309;22163;-89
2022/10/13 05:41:33;;;;;;;39.00;31.50;;;;;;;4.21;85.45;98621.52;106629;1309;22176;-90
2022/10/13 05:44:06;;;;;;;44.40;29.20;;;;;;;4.23;85.74;98621.14;106870;1303;22128;-90
2022/10/13 05:46:34;;;;;;;31.10;27.20;;;;;;;4.29;85.64;98616.05;106612;1309;22183;-89
2022/10/13 05:49:02;;;;;;;28.70;24.00;;;;;;;4.36;85.75;98620.55;106811;1302;22139;-89
2022/10/13 05:51:36;;;;;;;27.80;22.80;;;;;;;4.40;85.62;98617.96;106891;1284;22181;-87
2022/10/13 05:54:28;;;;;;;26.80;23.40;;;;;;;4.43;86.16;98621.05;106890;1295;22853;-90
2022/10/13 05:57:01;;;;;;;35.70;25.40;;;;;;;4.45;86.27;98620.65;106646;1309;22179;-90
2022/10/13 05:59:34;;;;;;;32.90;25.90;;;;;;;4.43;86.51;98616.90;106868;1302;22161;-90
2022/10/13 06:02:06;;;;;;;30.40;27.20;;;;;;;4.49;86.29;98620.23;106623;1309;22812;-90
2022/10/13 06:04:41;;;;;;;29.80;25.60;;;;;;;4.59;86.41;98619.38;106808;1309;22200;-82
2022/10/13 06:07:14;;;;;;;32.00;24.80;;;;;;;4.71;86.61;98614.67;107088;1286;22233;31
2022/10/13 06:09:48;;;;;;;45.70;24.50;;;;;;;4.84;86.46;98616.05;96939;1282;22348;-81
2022/10/13 06:12:16;;;;;;;31.30;25.80;;;;;;;4.98;86.37;98610.77;101778;1274;22443;-85
2022/10/13 06:14:50;;;;;;;27.30;24.50;;;;;;;5.07;86.30;98606.79;107526;1265;23818;31
2022/10/13 06:17:18;;;;;;;28.20;24.30;;;;;;;5.18;86.22;98601.58;107206;1296;22969;-88
2022/10/13 06:19:52;;;;;;;29.20;24.10;;;;;;;5.35;86.59;98606.35;107269;1278;22241;31
2022/10/13 06:22:20;;;;;;;28.50;21.50;;;;;;;5.49;86.57;98610.23;106957;1309;22181;-94
2022/10/13 06:24:49;;;;;;;28.80;24.10;;;;;;;5.65;86.51;98612.72;106839;1309;22093;-88
2022/10/13 06:27:17;;;;;;;28.10;21.40;;;;;;;5.80;86.67;98609.55;107152;1286;22755;-93
2022/10/13 06:29:45;;;;;;;28.10;24.70;;;;;;;5.95;86.74;98613.27;106910;1309;22380;-87
2022/10/13 06:32:13;;;;;;;28.70;24.00;;;;;;;6.09;86.76;98609.04;107144;1291;22217;-90
2022/10/13 06:34:41;;;;;;;31.30;22.80;;;;;;;6.24;86.76;98610.19;106895;1310;22072;-91
2022/10/13 06:37:09;;;;;;;27.60;19.30;;;;;;;6.39;86.77;98612.75;107077;1291;22181;-92
2022/10/13 06:39:37;;;;;;;24.50;19.30;;;;;;;6.56;86.79;98609.52;107009;1294;22151;-90
2022/10/13 06:42:05;;;;;;;23.20;18.30;;;;;;;6.74;86.76;98612.25;106951;1292;22169;-91
2022/10/13 06:44:37;;;;;;;41.10;18.80;;;;;;;6.89;86.64;98608.08;106757;1309;22221;-92
2022/10/13 06:47:05;;;;;;;24.50;17.70;;;;;;;7.02;86.62;98614.38;106764;1310;22186;-90
2022/10/13 06:49:33;;;;;;;25.30;17.80;;;;;;;7.14;86.64;98609.73;106958;1302;22190;-89
2022/10/13 06:52:01;;;;;;;26.40;19.80;;;;;;;7.25;86.67;98612.16;106780;1309;22187;-92
2022/10/13 06:54:29;;;;;;;24.10;17.80;;;;;;;7.39;86.47;98609.08;106821;1312;22210;-92
2022/10/13 06:56:57;;;;;;;21.20;16.30;;;;;;;7.49;86.42;98613.32;106881;1300;22052;-91
2022/10/13 06:59:26;;;;;;;26.60;19.10;;;;;;;7.56;86.44;98609.73;106773;1312;22192;-88
2022/10/13 07:01:54;;;;;;;25.10;19.10;;;;;;;7.63;86.13;98605.44;107109;1293;22143;-93
2022/10/13 07:04:24;;;;;;;27.00;22.20;;;;;;;7.70;86.22;98604.66;106900;1313;22079;-92
2022/10/13 07:06:54;;;;;;;29.00;23.10;;;;;;;7.76;85.88;98604.10;106908;1305;22199;-91
2022/10/13 07:09:22;;;;;;;32.00;28.40;;;;;;;7.83;86.00;98603.21;106872;1296;22800;-93
2022/10/13 07:11:50;;;;;;;37.70;21.00;;;;;;;7.93;85.79;98606.45;107067;1283;22203;-88
2022/10/13 07:14:18;;;;;;;34.50;22.40;;;;;;;7.99;85.66;98603.09;106926;1310;22065;-89
2022/10/13 07:16:47;;;;;;;29.30;20.80;;;;;;;8.00;85.30;98600.69;106892;1311;22203;-88
2022/10/13 07:19:15;;;;;;;24.60;19.60;;;;;;;8.00;84.92;98605.94;107007;1306;22072;-93
2022/10/13 07:21:43;;;;;;;30.70;21.50;;;;;;;8.01;84.89;98605.78;107043;1290;23451;-91
2022/10/13 07:24:11;;;;;;;25.50;22.70;;;;;;;8.05;85.06;98606.33;107056;1306;22159;-89
2022/10/13 07:26:39;;;;;;;31.80;21.50;;;;;;;8.09;84.60;98604.52;107001;1309;22249;-94
2022/10/13 07:29:08;;;;;;;27.40;21.00;;;;;;;8.12;84.09;98602.85;106976;1311;22327;-92
2022/10/13 07:31:36;;;;;;;33.90;23.00;;;;;;;8.19;84.33;98602.60;106781;1310;22172;-88
2022/10/13 07:34:04;;;;;;;31.30;21.40;;;;;;;8.27;84.18;98603.43;106834;1310;22178;-92
2022/10/13 07:36:32;;;;;;;29.20;20.60;;;;;;;8.35;84.41;98602.36;107039;1310;22205;-88
2022/10/13 07:39:02;;;;;;;21.60;18.70;;;;;;;8.42;84.08;98604.92;106952;1309;22076;-89
2022/10/13 07:41:31;;;;;;;23.40;19.60;;;;;;;8.46;83.47;98603.15;106656;1311;22184;-92
2022/10/13 07:43:59;;;;;;;21.90;18.10;;;;;;;8.48;83.26;98597.25;106958;1297;22042;-89
2022/10/13 07:46:27;;;;;;;20.70;17.40;;;;;;;8.55;83.15;98597.63;106699;1310;22183;-86
2022/10/13 07:48:55;;;;;;;21.60;18.20;;;;;;;8.61;83.16;98594.13;106896;1309;22178;-91
2022/10/13 07:51:23;;;;;;;23.90;18.00;;;;;;;8.68;82.79;98588.66;106725;1310;22196;-90
2022/10/13 07:53:51;;;;;;;25.40;18.40;;;;;;;8.72;82.40;98585.64;107004;1287;22766;-86
2022/10/13 07:56:19;;;;;;;31.40;20.60;;;;;;;8.81;83.03;98578.65;107028;1303;22782;-87
2022/10/13 07:58:47;;;;;;;24.60;18.70;;;;;;;8.92;82.50;98577.73;106773;1310;22082;-89
2022/10/13 08:01:16;;;;;;;27.70;18.40;;;;;;;9.00;81.99;98572.71;107038;1303;22162;-88
2022/10/13 08:03:44;;;;;;;21.60;17.50;;;;;;;9.11;82.09;98574.04;107032;1305;22098;-92
2022/10/13 08:06:18;;;;;;;22.60;17.00;;;;;;;9.26;82.22;98572.27;107032;1291;23116;-87
2022/10/13 08:08:47;;;;;;;20.60;18.00;;;;;;;9.37;81.69;98567.63;106895;1304;22161;-86
2022/10/13 08:11:16;;;;;;;21.50;18.10;;;;;;;9.44;81.45;98563.62;107024;1290;22259;-88
2022/10/13 08:13:51;;;;;;;21.30;18.80;;;;;;;9.51;81.60;98564.77;106989;1302;22234;-85
2022/10/13 08:16:22;;;;;;;20.70;17.90;;;;;;;9.62;81.27;98560.42;106597;1310;22194;-83
2022/10/13 08:18:50;;;;;;;21.20;17.50;;;;;;;9.70;80.89;98565.33;106959;1281;22185;-85
2022/10/13 08:21:21;;;;;;;21.30;17.50;;;;;;;9.80;81.16;98566.41;106748;1308;22787;-83
2022/10/13 08:24:14;;;;;;;23.20;18.80;;;;;;;9.94;81.16;98563.16;106658;1309;22149;-87
2022/10/13 08:26:45;;;;;;;22.30;17.70;;;;;;;10.11;81.16;98561.98;106934;1302;22134;-90
2022/10/13 08:29:13;;;;;;;19.70;17.60;;;;;;;10.31;81.14;98556.77;106939;1302;22160;-84
2022/10/13 08:31:53;;;;;;;20.70;18.50;;;;;;;10.48;81.10;98559.81;107026;1291;22850;-88
2022/10/13 08:34:23;;;;;;;20.40;17.60;;;;;;;10.65;81.17;98558.45;106668;1309;22195;-87
2022/10/13 08:36:53;;;;;;;23.00;18.70;;;;;;;10.81;81.20;98552.59;107009;1291;22158;-87
2022/10/13 08:39:23;;;;;;;22.30;18.50;;;;;;;10.95;80.36;98557.14;106959;1285;22881;-88
2022/10/13 08:41:53;;;;;;;25.60;17.50;;;;;;;11.06;80.17;98557.02;106674;1309;22066;-87
2022/10/13 08:44:35;;;;;;;23.90;19.10;;;;;;;11.18;80.15;98560.85;106918;1303;22195;-87
2022/10/13 08:47:34;;;;;;;21.70;18.90;;;;;;;11.29;79.83;98561.80;106801;1309;22934;-87
2022/10/13 08:50:12;;;;;;;19.90;17.70;;;;;;;11.41;79.66;98559.99;106720;1300;22631;-88
2022/10/13 08:52:51;;;;;;;21.60;17.50;;;;;;;11.50;78.46;98558.76;106763;1308;22740;-88
2022/10/13 08:55:32;;;;;;;22.70;18.10;;;;;;;11.57;78.20;98555.98;106674;1309;22214;-88
2022/10/13 08:58:08;;;;;;;23.40;19.30;;;;;;;11.65;78.28;98550.96;107066;1289;23250;-88
2022/10/13 09:00:36;;;;;;;20.10;17.00;;;;;;;11.76;76.82;98548.70;106710;1309;22199;-88
2022/10/13 09:03:19;;;;;;;22.20;16.20;;;;;;;11.86;77.34;98549.58;106777;1294;22172;-89
2022/10/13 09:06:10;;;;;;;25.50;18.90;;;;;;;11.96;77.01;98547.55;106786;1306;22172;-87
2022/10/13 09:08:44;;;;;;;38.10;20.10;;;;;;;12.07;76.91;98541.58;106645;1309;22172;-91
2022/10/13 09:11:12;;;;;;;22.20;19.60;;;;;;;12.11;76.44;98535.98;106699;1309;22193;-87
2022/10/13 09:13:41;;;;;;;23.00;18.10;;;;;;;12.22;76.52;98540.42;106990;1288;22081;-87
2022/10/13 09:16:09;;;;;;;19.40;17.30;;;;;;;12.32;76.91;98538.48;107091;1302;22163;-90
2022/10/13 09:18:37;;;;;;;19.30;17.20;;;;;;;12.44;76.74;98537.43;106800;1310;22203;-82
2022/10/13 09:21:17;;;;;;;23.20;15.30;;;;;;;12.60;76.54;98537.98;106693;1310;22217;-88
2022/10/13 09:23:49;;;;;;;19.50;15.10;;;;;;;12.94;76.77;98537.45;106843;1309;22283;-90
2022/10/13 09:26:21;;;;;;;21.50;15.10;;;;;;;13.22;76.10;98537.27;106863;1307;23101;-90
2022/10/13 09:28:50;;;;;;;26.50;17.20;;;;;;;13.53;75.64;98534.66;107036;1302;22114;-90
2022/10/13 09:31:29;;;;;;;18.20;15.80;;;;;;;13.60;75.11;98534.35;106890;1309;22213;-90
2022/10/13 09:34:11;;;;;;;21.20;17.80;;;;;;;13.75;76.13;98534.69;106666;1309;22869;-92
2022/10/13 09:36:54;;;;;;;19.20;15.80;;;;;;;13.93;75.41;98529.96;106565;1309;22199;-91
2022/10/13 09:39:22;;;;;;;18.90;16.10;;;;;;;14.04;74.14;98531.94;106685;1309;22095;-91
2022/10/13 09:41:51;;;;;;;21.60;16.90;;;;;;;14.18;74.13;98531.31;106625;1310;22113;-92
2022/10/13 09:44:30;;;;;;;21.00;16.30;;;;;;;14.26;73.91;98528.00;106942;1295;22763;-92
2022/10/13 09:47:02;;;;;;;17.90;13.20;;;;;;;14.32;73.73;98521.80;106663;1309;22182;-89
2022/10/13 09:49:36;;;;;;;21.10;15.20;;;;;;;14.52;72.54;98521.98;107027;1285;22142;-89
2022/10/13 09:52:15;;;;;;;17.60;14.80;;;;;;;14.63;70.38;98521.36;106559;1309;22181;-89
2022/10/13 09:54:45;;;;;;;18.50;15.00;;;;;;;14.73;71.75;98520.66;106678;1310;22206;-90
2022/10/13 09:57:40;;;;;;;21.00;14.70;;;;;;;14.76;71.80;98517.10;106990;1285;22179;-90
2022/10/13 10:00:17;;;;;;;19.40;13.60;;;;;;;14.89;71.36;98516.88;106954;1302;22164;-91
2022/10/13 10:03:06;;;;;;;20.50;13.20;;;;;;;15.05;71.56;98515.64;106690;1308;22553;-92
2022/10/13 10:05:40;;;;;;;17.60;12.90;;;;;;;15.17;70.75;98511.98;106396;1309;411269;-92
2022/10/13 10:08:22;;;;;;;18.70;14.60;;;;;;;15.35;70.22;98513.52;106646;1309;22896;-93
2022/10/13 10:11:03;;;;;;;20.40;13.90;;;;;;;15.56;70.43;98509.93;106586;1309;22221;-91
2022/10/13 10:13:31;;;;;;;16.90;13.00;;;;;;;15.77;69.79;98505.42;106591;1310;22195;-87
2022/10/13 10:16:11;;;;;;;18.00;12.40;;;;;;;15.92;67.66;98505.10;107095;1300;22176;-85
2022/10/13 10:18:52;;;;;;;19.40;13.20;;;;;;;15.93;67.22;98498.09;107102;1300;21846;-89
2022/10/13 10:21:48;;;;;;;16.80;12.30;;;;;;;15.93;67.96;98491.24;106982;1309;22196;-88
2022/10/13 10:24:30;;;;;;;17.90;12.60;;;;;;;15.95;67.57;98487.45;106939;1309;22183;-91
2022/10/13 10:27:02;;;;;;;18.20;12.70;;;;;;;15.98;65.50;98488.15;106970;1303;22176;-90
2022/10/13 10:29:54;;;;;;;16.90;12.70;;;;;;;16.00;66.51;98490.17;106995;1309;23003;-90
2022/10/13 10:32:42;;;;;;;16.90;12.50;;;;;;;16.04;66.80;98487.09;106826;1309;22922;-92
2022/10/13 10:35:13;;;;;;;21.00;13.30;;;;;;;16.10;66.27;98482.65;106683;1310;22854;-88
2022/10/13 10:38:11;;;;;;;18.00;11.50;;;;;;;16.15;65.84;98477.78;106765;1309;22162;-93
2022/10/13 10:41:04;;;;;;;16.00;11.60;;;;;;;16.24;66.13;98474.08;106643;1304;22193;-91
2022/10/13 10:43:32;;;;;;;15.10;12.60;;;;;;;16.35;65.74;98467.17;106696;1309;22185;-91
2022/10/13 10:46:00;;;;;;;14.70;11.90;;;;;;;16.44;65.33;98467.48;107197;1301;22285;-79
2022/10/13 10:48:35;;;;;;;15.70;11.10;;;;;;;16.55;65.56;98464.66;107049;1301;22476;-84
2022/10/13 10:51:06;;;;;;;22.20;12.30;;;;;;;16.68;65.11;98464.38;106959;1309;22558;-79
2022/10/13 10:54:09;;;;;;;16.60;12.20;;;;;;;16.83;64.98;98463.29;107052;1308;22098;-82
2022/10/13 10:56:43;;;;;;;17.90;11.90;;;;;;;16.98;64.93;98461.73;107077;1309;22060;-81
2022/10/13 10:59:39;;;;;;;20.40;12.80;;;;;;;17.13;64.79;98458.62;106912;1309;22070;-92
2022/10/13 11:02:07;;;;;;;18.70;10.00;;;;;;;17.29;62.79;98457.45;107057;1302;22037;-93
2022/10/13 11:04:44;;;;;;;18.00;10.80;;;;;;;17.35;62.29;98455.17;106966;1301;22218;-93
2022/10/13 11:07:23;;;;;;;15.40;10.50;;;;;;;17.42;62.26;98451.35;106950;1302;22061;-92
2022/10/13 11:09:59;;;;;;;15.60;10.30;;;;;;;17.51;61.81;98448.40;106975;1301;22190;-92
2022/10/13 11:12:46;;;;;;;15.40;10.60;;;;;;;17.60;61.92;98444.94;106961;1285;22153;-89
2022/10/13 11:15:29;;;;;;;14.90;9.70;;;;;;;17.74;61.26;98441.48;106696;1309;22186;-92
2022/10/13 11:17:57;;;;;;;16.00;10.50;;;;;;;17.84;60.22;98442.90;106624;1309;22257;-92
2022/10/13 11:20:25;;;;;;;16.20;10.00;;;;;;;17.88;60.26;98436.36;106839;1303;22171;-90
2022/10/13 11:22:59;;;;;;;15.20;11.00;;;;;;;17.95;60.50;98434.06;107009;1285;22793;-91
2022/10/13 11:25:39;;;;;;;19.40;10.70;;;;;;;18.03;59.19;98431.20;107009;1285;22695;-91
2022/10/13 11:28:19;;;;;;;14.70;9.80;;;;;;;18.08;58.91;98428.30;106692;1300;22901;-90
2022/10/13 11:30:53;;;;;;;13.20;9.10;;;;;;;18.15;59.35;98426.95;106706;1309;22187;-92
2022/10/13 11:33:39;;;;;;;15.30;8.70;;;;;;;18.28;58.59;98426.41;106638;1309;22155;-92
2022/10/13 11:36:47;;;;;;;15.90;9.40;;;;;;;18.35;58.89;98423.44;106733;1308;22193;-91
2022/10/13 11:39:26;;;;;;;16.30;9.60;;;;;;;18.48;58.83;98420.25;106713;1304;22967;-89
2022/10/13 11:42:25;;;;;;;15.50;9.50;;;;;;;18.59;58.01;98414.13;107038;1285;22156;-92
2022/10/13 11:44:56;;;;;;;17.70;10.80;;;;;;;18.81;58.34;98409.17;106790;1309;22188;-92